sensor_id;sensor_type;location;lat;lon;timestamp;P1;durP1;ratioP1;P2;durP2;ratioP2
13807;SDS011;40769;51.512;5.494;2023-04-24T00:02:11;10.15;;;9.35;;
13807;SDS011;40769;51.512;5.494;2023-04-24T00:04:37;9.25;;;8.55;;
13807;SDS011;40769;51.512;5.494;2023-04-24T00:07:09;9.88;;;9.07;;
13807;SDS011;40769;51.512;5.494;2023-04-24T00:09:35;9.52;;;8.73;;
13807;SDS011;40769;51.512;5.494;2023-04-24T00:12:01;10.07;;;9.27;;
13807;SDS011;40769;51.512;5.494;2023-04-24T00:14:29;10.18;;;9.27;;
13807;SDS011;40769;51.512;5.494;2023-04-24T00:16:55;10.48;;;9.57;;
13807;SDS011;40769;51.512;5.494;2023-04-24T00:19:21;11.35;;;9.60;;
13807;SDS011;40769;51.512;5.494;2023-04-24T00:21:47;11.05;;;10.10;;
13807;SDS011;40769;51.512;5.494;2023-04-24T00:24:15;10.55;;;9.55;;
13807;SDS011;40769;51.512;5.494;2023-04-24T00:26:42;11.38;;;10.45;;
13807;SDS011;40769;51.512;5.494;2023-04-24T00:29:07;11.13;;;10.23;;
13807;SDS011;40769;51.512;5.494;2023-04-24T00:31:33;11.98;;;10.93;;
13807;SDS011;40769;51.512;5.494;2023-04-24T00:34:02;12.30;;;11.35;;
13807;SDS011;40769;51.512;5.494;2023-04-24T00:36:28;12.70;;;11.60;;
13807;SDS011;40769;51.512;5.494;2023-04-24T00:38:54;12.35;;;11.35;;
13807;SDS011;40769;51.512;5.494;2023-04-24T00:41:20;12.57;;;11.30;;
13807;SDS011;40769;51.512;5.494;2023-04-24T00:43:47;12.57;;;11.38;;
13807;SDS011;40769;51.512;5.494;2023-04-24T00:46:13;12.70;;;11.40;;
13807;SDS011;40769;51.512;5.494;2023-04-24T00:48:39;13.10;;;11.85;;
13807;SDS011;40769;51.512;5.494;2023-04-24T00:51:05;13.52;;;12.32;;
13807;SDS011;40769;51.512;5.494;2023-04-24T00:53:31;12.80;;;11.60;;
13807;SDS011;40769;51.512;5.494;2023-04-24T00:55:57;13.50;;;12.30;;
13807;SDS011;40769;51.512;5.494;2023-04-24T00:58:24;13.57;;;12.38;;
13807;SDS011;40769;51.512;5.494;2023-04-24T01:00:51;12.77;;;11.55;;
13807;SDS011;40769;51.512;5.494;2023-04-24T01:03:19;13.50;;;12.30;;
13807;SDS011;40769;51.512;5.494;2023-04-24T01:05:47;13.55;;;12.35;;
13807;SDS011;40769;51.512;5.494;2023-04-24T01:08:14;13.70;;;12.55;;
13807;SDS011;40769;51.512;5.494;2023-04-24T01:10:40;12.25;;;11.15;;
13807;SDS011;40769;51.512;5.494;2023-04-24T01:13:09;14.60;;;13.25;;
13807;SDS011;40769;51.512;5.494;2023-04-24T01:15:35;14.18;;;12.88;;
13807;SDS011;40769;51.512;5.494;2023-04-24T01:18:01;15.02;;;13.73;;
13807;SDS011;40769;51.512;5.494;2023-04-24T01:20:27;14.95;;;12.70;;
13807;SDS011;40769;51.512;5.494;2023-04-24T01:22:55;13.70;;;12.60;;
13807;SDS011;40769;51.512;5.494;2023-04-24T01:25:24;15.60;;;13.43;;
13807;SDS011;40769;51.512;5.494;2023-04-24T01:27:50;14.60;;;13.20;;
13807;SDS011;40769;51.512;5.494;2023-04-24T01:30:17;15.38;;;14.07;;
13807;SDS011;40769;51.512;5.494;2023-04-24T01:32:43;15.65;;;14.15;;
13807;SDS011;40769;51.512;5.494;2023-04-24T01:35:10;14.32;;;13.02;;
13807;SDS011;40769;51.512;5.494;2023-04-24T01:37:39;16.45;;;14.95;;
13807;SDS011;40769;51.512;5.494;2023-04-24T01:40:05;17.20;;;15.75;;
13807;SDS011;40769;51.512;5.494;2023-04-24T01:42:32;17.65;;;16.05;;
13807;SDS011;40769;51.512;5.494;2023-04-24T01:44:59;17.90;;;16.20;;
13807;SDS011;40769;51.512;5.494;2023-04-24T01:47:25;17.55;;;15.95;;
13807;SDS011;40769;51.512;5.494;2023-04-24T01:49:51;17.30;;;15.75;;
13807;SDS011;40769;51.512;5.494;2023-04-24T01:52:17;19.00;;;17.10;;
13807;SDS011;40769;51.512;5.494;2023-04-24T01:54:43;18.17;;;16.58;;
13807;SDS011;40769;51.512;5.494;2023-04-24T01:57:09;19.40;;;17.55;;
13807;SDS011;40769;51.512;5.494;2023-04-24T01:59:35;19.58;;;17.88;;
13807;SDS011;40769;51.512;5.494;2023-04-24T02:02:02;19.40;;;17.60;;
13807;SDS011;40769;51.512;5.494;2023-04-24T02:04:28;20.15;;;18.40;;
13807;SDS011;40769;51.512;5.494;2023-04-24T02:06:53;20.55;;;18.75;;
13807;SDS011;40769;51.512;5.494;2023-04-24T02:09:19;19.40;;;17.67;;
13807;SDS011;40769;51.512;5.494;2023-04-24T02:11:45;19.38;;;17.58;;
13807;SDS011;40769;51.512;5.494;2023-04-24T02:14:10;18.38;;;16.77;;
13807;SDS011;40769;51.512;5.494;2023-04-24T02:16:36;19.92;;;18.13;;
13807;SDS011;40769;51.512;5.494;2023-04-24T02:19:02;19.60;;;17.73;;
13807;SDS011;40769;51.512;5.494;2023-04-24T02:21:28;20.08;;;18.38;;
13807;SDS011;40769;51.512;5.494;2023-04-24T02:23:55;19.55;;;17.85;;
13807;SDS011;40769;51.512;5.494;2023-04-24T02:26:21;20.30;;;18.48;;
13807;SDS011;40769;51.512;5.494;2023-04-24T02:28:47;19.95;;;18.25;;
13807;SDS011;40769;51.512;5.494;2023-04-24T02:31:13;20.48;;;18.55;;
13807;SDS011;40769;51.512;5.494;2023-04-24T02:33:38;22.00;;;19.88;;
13807;SDS011;40769;51.512;5.494;2023-04-24T02:36:04;21.83;;;19.85;;
13807;SDS011;40769;51.512;5.494;2023-04-24T02:38:30;20.05;;;18.15;;
13807;SDS011;40769;51.512;5.494;2023-04-24T02:40:55;21.50;;;19.40;;
13807;SDS011;40769;51.512;5.494;2023-04-24T02:43:21;21.10;;;19.15;;
13807;SDS011;40769;51.512;5.494;2023-04-24T02:45:46;20.13;;;18.17;;
13807;SDS011;40769;51.512;5.494;2023-04-24T02:48:12;21.58;;;19.65;;
13807;SDS011;40769;51.512;5.494;2023-04-24T02:50:38;22.38;;;20.38;;
13807;SDS011;40769;51.512;5.494;2023-04-24T02:53:03;21.85;;;19.88;;
13807;SDS011;40769;51.512;5.494;2023-04-24T02:55:29;21.42;;;19.42;;
13807;SDS011;40769;51.512;5.494;2023-04-24T02:57:55;20.77;;;18.88;;
13807;SDS011;40769;51.512;5.494;2023-04-24T03:00:21;20.67;;;18.58;;
13807;SDS011;40769;51.512;5.494;2023-04-24T03:02:46;21.58;;;19.45;;
13807;SDS011;40769;51.512;5.494;2023-04-24T03:05:12;20.48;;;18.67;;
13807;SDS011;40769;51.512;5.494;2023-04-24T03:07:37;20.55;;;18.75;;
13807;SDS011;40769;51.512;5.494;2023-04-24T03:10:04;21.38;;;19.45;;
13807;SDS011;40769;51.512;5.494;2023-04-24T03:12:30;22.60;;;20.70;;
13807;SDS011;40769;51.512;5.494;2023-04-24T03:14:56;22.63;;;20.50;;
13807;SDS011;40769;51.512;5.494;2023-04-24T03:17:22;21.27;;;19.48;;
13807;SDS011;40769;51.512;5.494;2023-04-24T03:19:47;19.77;;;18.02;;
13807;SDS011;40769;51.512;5.494;2023-04-24T03:22:13;19.45;;;17.75;;
13807;SDS011;40769;51.512;5.494;2023-04-24T03:24:38;21.73;;;19.63;;
13807;SDS011;40769;51.512;5.494;2023-04-24T03:27:05;19.67;;;17.90;;
13807;SDS011;40769;51.512;5.494;2023-04-24T03:29:30;20.30;;;18.38;;
13807;SDS011;40769;51.512;5.494;2023-04-24T03:31:56;19.10;;;17.33;;
13807;SDS011;40769;51.512;5.494;2023-04-24T03:34:22;18.65;;;17.02;;
13807;SDS011;40769;51.512;5.494;2023-04-24T03:36:47;18.70;;;17.02;;
13807;SDS011;40769;51.512;5.494;2023-04-24T03:39:13;18.90;;;16.95;;
13807;SDS011;40769;51.512;5.494;2023-04-24T03:41:39;17.08;;;15.68;;
13807;SDS011;40769;51.512;5.494;2023-04-24T03:44:05;16.35;;;14.77;;
13807;SDS011;40769;51.512;5.494;2023-04-24T03:46:31;16.65;;;15.15;;
13807;SDS011;40769;51.512;5.494;2023-04-24T03:48:56;16.83;;;15.15;;
13807;SDS011;40769;51.512;5.494;2023-04-24T03:51:22;17.15;;;15.52;;
13807;SDS011;40769;51.512;5.494;2023-04-24T03:53:48;16.73;;;15.30;;
13807;SDS011;40769;51.512;5.494;2023-04-24T03:56:14;16.40;;;14.98;;
13807;SDS011;40769;51.512;5.494;2023-04-24T03:58:39;16.88;;;15.30;;
13807;SDS011;40769;51.512;5.494;2023-04-24T04:01:05;16.08;;;14.57;;
13807;SDS011;40769;51.512;5.494;2023-04-24T04:03:31;15.30;;;13.82;;
13807;SDS011;40769;51.512;5.494;2023-04-24T04:05:57;17.27;;;15.68;;
13807;SDS011;40769;51.512;5.494;2023-04-24T04:08:22;15.98;;;14.50;;
13807;SDS011;40769;51.512;5.494;2023-04-24T04:10:48;15.95;;;14.60;;
13807;SDS011;40769;51.512;5.494;2023-04-24T04:13:14;15.98;;;14.38;;
13807;SDS011;40769;51.512;5.494;2023-04-24T04:15:39;15.77;;;14.38;;
13807;SDS011;40769;51.512;5.494;2023-04-24T04:18:05;15.25;;;13.82;;
13807;SDS011;40769;51.512;5.494;2023-04-24T04:20:33;15.43;;;14.07;;
13807;SDS011;40769;51.512;5.494;2023-04-24T04:22:59;15.85;;;14.48;;
13807;SDS011;40769;51.512;5.494;2023-04-24T04:25:25;15.27;;;13.80;;
13807;SDS011;40769;51.512;5.494;2023-04-24T04:27:50;15.52;;;14.23;;
13807;SDS011;40769;51.512;5.494;2023-04-24T04:30:17;15.50;;;13.90;;
13807;SDS011;40769;51.512;5.494;2023-04-24T04:32:43;14.82;;;13.50;;
13807;SDS011;40769;51.512;5.494;2023-04-24T04:35:09;14.70;;;13.50;;
13807;SDS011;40769;51.512;5.494;2023-04-24T04:37:35;14.45;;;13.15;;
13807;SDS011;40769;51.512;5.494;2023-04-24T04:40:00;13.35;;;12.30;;
13807;SDS011;40769;51.512;5.494;2023-04-24T04:42:31;13.88;;;12.68;;
13807;SDS011;40769;51.512;5.494;2023-04-24T04:44:57;13.55;;;12.40;;
13807;SDS011;40769;51.512;5.494;2023-04-24T04:47:23;12.18;;;11.18;;
13807;SDS011;40769;51.512;5.494;2023-04-24T04:49:49;12.30;;;11.30;;
13807;SDS011;40769;51.512;5.494;2023-04-24T04:52:16;12.80;;;11.70;;
13807;SDS011;40769;51.512;5.494;2023-04-24T04:54:42;11.98;;;11.00;;
13807;SDS011;40769;51.512;5.494;2023-04-24T04:57:08;12.65;;;11.63;;
13807;SDS011;40769;51.512;5.494;2023-04-24T04:59:34;11.95;;;10.93;;
13807;SDS011;40769;51.512;5.494;2023-04-24T05:01:59;11.48;;;10.55;;
13807;SDS011;40769;51.512;5.494;2023-04-24T05:04:25;10.52;;;9.73;;
13807;SDS011;40769;51.512;5.494;2023-04-24T05:06:51;11.32;;;10.32;;
13807;SDS011;40769;51.512;5.494;2023-04-24T05:09:17;11.50;;;10.60;;
13807;SDS011;40769;51.512;5.494;2023-04-24T05:11:43;10.57;;;9.70;;
13807;SDS011;40769;51.512;5.494;2023-04-24T05:14:09;11.98;;;10.98;;
13807;SDS011;40769;51.512;5.494;2023-04-24T05:16:34;11.73;;;10.73;;
13807;SDS011;40769;51.512;5.494;2023-04-24T05:19:01;10.85;;;9.95;;
13807;SDS011;40769;51.512;5.494;2023-04-24T05:21:28;10.63;;;9.77;;
13807;SDS011;40769;51.512;5.494;2023-04-24T05:23:54;10.20;;;9.40;;
13807;SDS011;40769;51.512;5.494;2023-04-24T05:26:19;9.63;;;8.93;;
13807;SDS011;40769;51.512;5.494;2023-04-24T05:28:45;8.95;;;8.25;;
13807;SDS011;40769;51.512;5.494;2023-04-24T05:31:11;9.43;;;8.63;;
13807;SDS011;40769;51.512;5.494;2023-04-24T05:33:37;8.50;;;7.80;;
13807;SDS011;40769;51.512;5.494;2023-04-24T05:36:03;8.52;;;7.82;;
13807;SDS011;40769;51.512;5.494;2023-04-24T05:38:30;9.25;;;8.45;;
13807;SDS011;40769;51.512;5.494;2023-04-24T05:40:56;8.35;;;7.63;;
13807;SDS011;40769;51.512;5.494;2023-04-24T05:43:21;5.75;;;5.35;;
13807;SDS011;40769;51.512;5.494;2023-04-24T05:45:47;5.57;;;5.07;;
13807;SDS011;40769;51.512;5.494;2023-04-24T05:48:13;3.78;;;3.47;;
13807;SDS011;40769;51.512;5.494;2023-04-24T05:50:38;4.35;;;3.10;;
13807;SDS011;40769;51.512;5.494;2023-04-24T05:53:04;2.97;;;2.67;;
13807;SDS011;40769;51.512;5.494;2023-04-24T05:55:32;3.63;;;2.33;;
13807;SDS011;40769;51.512;5.494;2023-04-24T05:57:57;3.60;;;2.42;;
13807;SDS011;40769;51.512;5.494;2023-04-24T06:00:23;2.33;;;2.13;;
13807;SDS011;40769;51.512;5.494;2023-04-24T06:02:50;2.40;;;2.20;;
13807;SDS011;40769;51.512;5.494;2023-04-24T06:05:16;2.05;;;1.90;;
13807;SDS011;40769;51.512;5.494;2023-04-24T06:07:42;2.63;;;1.95;;
13807;SDS011;40769;51.512;5.494;2023-04-24T06:10:08;2.97;;;1.98;;
13807;SDS011;40769;51.512;5.494;2023-04-24T06:12:34;2.08;;;1.88;;
13807;SDS011;40769;51.512;5.494;2023-04-24T06:15:01;3.13;;;2.30;;
13807;SDS011;40769;51.512;5.494;2023-04-24T06:17:27;1.90;;;1.80;;
13807;SDS011;40769;51.512;5.494;2023-04-24T06:19:53;2.47;;;2.28;;
13807;SDS011;40769;51.512;5.494;2023-04-24T06:22:18;4.55;;;2.58;;
13807;SDS011;40769;51.512;5.494;2023-04-24T06:24:44;2.80;;;2.60;;
13807;SDS011;40769;51.512;5.494;2023-04-24T06:27:10;4.93;;;2.65;;
13807;SDS011;40769;51.512;5.494;2023-04-24T06:29:35;2.30;;;2.10;;
13807;SDS011;40769;51.512;5.494;2023-04-24T06:32:02;3.08;;;2.70;;
13807;SDS011;40769;51.512;5.494;2023-04-24T06:34:27;3.03;;;2.78;;
13807;SDS011;40769;51.512;5.494;2023-04-24T06:36:53;4.22;;;2.65;;
13807;SDS011;40769;51.512;5.494;2023-04-24T06:39:20;3.78;;;3.33;;
13807;SDS011;40769;51.512;5.494;2023-04-24T06:41:46;4.25;;;3.17;;
13807;SDS011;40769;51.512;5.494;2023-04-24T06:44:11;4.40;;;4.10;;
13807;SDS011;40769;51.512;5.494;2023-04-24T06:46:39;4.85;;;4.35;;
13807;SDS011;40769;51.512;5.494;2023-04-24T06:49:06;5.57;;;5.18;;
13807;SDS011;40769;51.512;5.494;2023-04-24T06:51:31;6.40;;;5.88;;
13807;SDS011;40769;51.512;5.494;2023-04-24T06:53:58;6.15;;;5.65;;
13807;SDS011;40769;51.512;5.494;2023-04-24T06:56:24;7.85;;;7.25;;
13807;SDS011;40769;51.512;5.494;2023-04-24T06:58:50;8.07;;;7.38;;
13807;SDS011;40769;51.512;5.494;2023-04-24T07:01:16;9.35;;;8.55;;
13807;SDS011;40769;51.512;5.494;2023-04-24T07:03:43;9.95;;;9.05;;
13807;SDS011;40769;51.512;5.494;2023-04-24T07:06:09;10.60;;;9.60;;
13807;SDS011;40769;51.512;5.494;2023-04-24T07:08:36;9.90;;;9.00;;
13807;SDS011;40769;51.512;5.494;2023-04-24T07:11:02;12.07;;;10.95;;
13807;SDS011;40769;51.512;5.494;2023-04-24T07:13:28;11.73;;;10.30;;
13807;SDS011;40769;51.512;5.494;2023-04-24T07:15:53;11.82;;;10.82;;
13807;SDS011;40769;51.512;5.494;2023-04-24T07:18:21;11.65;;;10.55;;
13807;SDS011;40769;51.512;5.494;2023-04-24T07:20:47;12.10;;;10.98;;
13807;SDS011;40769;51.512;5.494;2023-04-24T07:23:15;12.02;;;10.60;;
13807;SDS011;40769;51.512;5.494;2023-04-24T07:25:41;13.02;;;11.38;;
13807;SDS011;40769;51.512;5.494;2023-04-24T07:28:07;11.40;;;10.30;;
13807;SDS011;40769;51.512;5.494;2023-04-24T07:30:32;12.18;;;11.05;;
13807;SDS011;40769;51.512;5.494;2023-04-24T07:32:58;10.90;;;9.90;;
13807;SDS011;40769;51.512;5.494;2023-04-24T07:35:25;11.20;;;10.10;;
13807;SDS011;40769;51.512;5.494;2023-04-24T07:37:54;11.57;;;10.07;;
13807;SDS011;40769;51.512;5.494;2023-04-24T07:40:21;11.50;;;10.25;;
13807;SDS011;40769;51.512;5.494;2023-04-24T07:42:47;10.30;;;9.30;;
13807;SDS011;40769;51.512;5.494;2023-04-24T07:45:13;12.02;;;10.23;;
13807;SDS011;40769;51.512;5.494;2023-04-24T07:47:43;10.80;;;9.80;;
13807;SDS011;40769;51.512;5.494;2023-04-24T07:50:10;12.52;;;10.77;;
13807;SDS011;40769;51.512;5.494;2023-04-24T07:52:36;11.25;;;10.13;;
13807;SDS011;40769;51.512;5.494;2023-04-24T07:55:02;9.80;;;9.00;;
13807;SDS011;40769;51.512;5.494;2023-04-24T07:57:28;10.13;;;9.15;;
13807;SDS011;40769;51.512;5.494;2023-04-24T07:59:54;8.98;;;7.80;;
13807;SDS011;40769;51.512;5.494;2023-04-24T08:02:20;9.95;;;8.07;;
13807;SDS011;40769;51.512;5.494;2023-04-24T08:04:51;12.43;;;7.38;;
13807;SDS011;40769;51.512;5.494;2023-04-24T08:07:20;9.85;;;7.50;;
13807;SDS011;40769;51.512;5.494;2023-04-24T08:09:46;9.00;;;7.53;;
13807;SDS011;40769;51.512;5.494;2023-04-24T08:12:12;10.10;;;6.72;;
13807;SDS011;40769;51.512;5.494;2023-04-24T08:14:38;9.68;;;7.55;;
13807;SDS011;40769;51.512;5.494;2023-04-24T08:17:04;9.07;;;7.32;;
13807;SDS011;40769;51.512;5.494;2023-04-24T08:19:29;9.98;;;7.50;;
13807;SDS011;40769;51.512;5.494;2023-04-24T08:21:55;10.18;;;7.18;;
13807;SDS011;40769;51.512;5.494;2023-04-24T08:24:21;11.77;;;7.03;;
13807;SDS011;40769;51.512;5.494;2023-04-24T08:26:47;9.98;;;6.75;;
13807;SDS011;40769;51.512;5.494;2023-04-24T08:29:15;10.77;;;7.15;;
13807;SDS011;40769;51.512;5.494;2023-04-24T08:31:41;8.88;;;7.38;;
13807;SDS011;40769;51.512;5.494;2023-04-24T08:34:07;10.88;;;7.65;;
13807;SDS011;40769;51.512;5.494;2023-04-24T08:36:34;10.13;;;7.88;;
13807;SDS011;40769;51.512;5.494;2023-04-24T08:39:00;12.32;;;8.77;;
13807;SDS011;40769;51.512;5.494;2023-04-24T08:41:26;11.10;;;8.13;;
13807;SDS011;40769;51.512;5.494;2023-04-24T08:43:52;9.15;;;7.90;;
13807;SDS011;40769;51.512;5.494;2023-04-24T08:46:20;9.88;;;8.35;;
13807;SDS011;40769;51.512;5.494;2023-04-24T08:48:46;12.45;;;9.20;;
13807;SDS011;40769;51.512;5.494;2023-04-24T08:51:14;10.10;;;8.57;;
13807;SDS011;40769;51.512;5.494;2023-04-24T08:53:41;12.65;;;8.00;;
13807;SDS011;40769;51.512;5.494;2023-04-24T08:56:08;14.88;;;8.73;;
13807;SDS011;40769;51.512;5.494;2023-04-24T08:58:36;12.65;;;7.68;;
13807;SDS011;40769;51.512;5.494;2023-04-24T09:01:02;9.23;;;7.28;;
13807;SDS011;40769;51.512;5.494;2023-04-24T09:03:28;10.95;;;7.47;;
13807;SDS011;40769;51.512;5.494;2023-04-24T09:05:55;7.97;;;6.25;;
13807;SDS011;40769;51.512;5.494;2023-04-24T09:08:23;9.30;;;6.40;;
13807;SDS011;40769;51.512;5.494;2023-04-24T09:10:50;9.25;;;6.30;;
13807;SDS011;40769;51.512;5.494;2023-04-24T09:13:16;11.65;;;6.60;;
13807;SDS011;40769;51.512;5.494;2023-04-24T09:15:43;12.55;;;6.55;;
13807;SDS011;40769;51.512;5.494;2023-04-24T09:18:09;8.25;;;6.05;;
13807;SDS011;40769;51.512;5.494;2023-04-24T09:20:35;9.18;;;6.00;;
13807;SDS011;40769;51.512;5.494;2023-04-24T09:23:30;13.20;;;5.90;;
13807;SDS011;40769;51.512;5.494;2023-04-24T09:25:57;7.55;;;5.55;;
13807;SDS011;40769;51.512;5.494;2023-04-24T09:28:26;10.15;;;6.25;;
13807;SDS011;40769;51.512;5.494;2023-04-24T09:31:18;13.82;;;6.18;;
13807;SDS011;40769;51.512;5.494;2023-04-24T09:34:21;7.00;;;5.15;;
13807;SDS011;40769;51.512;5.494;2023-04-24T09:36:39;11.65;;;6.05;;
13807;SDS011;40769;51.512;5.494;2023-04-24T09:39:10;9.90;;;5.95;;
13807;SDS011;40769;51.512;5.494;2023-04-24T09:41:51;9.02;;;5.30;;
13807;SDS011;40769;51.512;5.494;2023-04-24T09:44:22;9.07;;;5.55;;
13807;SDS011;40769;51.512;5.494;2023-04-24T09:46:56;7.43;;;5.05;;
13807;SDS011;40769;51.512;5.494;2023-04-24T09:49:27;9.35;;;5.18;;
13807;SDS011;40769;51.512;5.494;2023-04-24T09:52:10;8.38;;;4.40;;
13807;SDS011;40769;51.512;5.494;2023-04-24T09:54:36;7.00;;;4.88;;
13807;SDS011;40769;51.512;5.494;2023-04-24T09:57:03;8.70;;;4.30;;
13807;SDS011;40769;51.512;5.494;2023-04-24T09:59:30;7.32;;;3.75;;
13807;SDS011;40769;51.512;5.494;2023-04-24T10:01:56;9.57;;;4.22;;
13807;SDS011;40769;51.512;5.494;2023-04-24T10:04:24;5.03;;;3.20;;
13807;SDS011;40769;51.512;5.494;2023-04-24T10:06:52;6.90;;;3.22;;
13807;SDS011;40769;51.512;5.494;2023-04-24T10:09:24;8.60;;;4.03;;
13807;SDS011;40769;51.512;5.494;2023-04-24T10:11:52;7.55;;;3.55;;
13807;SDS011;40769;51.512;5.494;2023-04-24T10:14:19;6.55;;;3.50;;
13807;SDS011;40769;51.512;5.494;2023-04-24T10:16:50;7.32;;;4.05;;
13807;SDS011;40769;51.512;5.494;2023-04-24T10:19:17;8.38;;;4.35;;
13807;SDS011;40769;51.512;5.494;2023-04-24T10:21:44;7.40;;;4.05;;
13807;SDS011;40769;51.512;5.494;2023-04-24T10:24:15;7.00;;;4.22;;
13807;SDS011;40769;51.512;5.494;2023-04-24T10:26:43;5.55;;;3.33;;
13807;SDS011;40769;51.512;5.494;2023-04-24T10:29:11;6.75;;;3.03;;
13807;SDS011;40769;51.512;5.494;2023-04-24T10:31:37;5.03;;;2.78;;
13807;SDS011;40769;51.512;5.494;2023-04-24T10:34:04;6.18;;;2.90;;
13807;SDS011;40769;51.512;5.494;2023-04-24T10:36:31;4.13;;;2.72;;
13807;SDS011;40769;51.512;5.494;2023-04-24T10:38:59;4.75;;;2.50;;
13807;SDS011;40769;51.512;5.494;2023-04-24T10:41:28;2.85;;;1.90;;
13807;SDS011;40769;51.512;5.494;2023-04-24T10:46:34;3.42;;;1.90;;
13807;SDS011;40769;51.512;5.494;2023-04-24T10:49:03;3.15;;;1.83;;
13807;SDS011;40769;51.512;5.494;2023-04-24T10:51:45;2.70;;;1.50;;
13807;SDS011;40769;51.512;5.494;2023-04-24T10:54:40;3.70;;;1.77;;
13807;SDS011;40769;51.512;5.494;2023-04-24T10:59:51;3.40;;;1.60;;
13807;SDS011;40769;51.512;5.494;2023-04-24T11:02:36;3.03;;;1.70;;
13807;SDS011;40769;51.512;5.494;2023-04-24T11:05:08;2.90;;;1.40;;
13807;SDS011;40769;51.512;5.494;2023-04-24T11:10:45;4.75;;;1.83;;
13807;SDS011;40769;51.512;5.494;2023-04-24T11:13:17;3.05;;;1.60;;
13807;SDS011;40769;51.512;5.494;2023-04-24T11:16:11;3.22;;;1.50;;
13807;SDS011;40769;51.512;5.494;2023-04-24T11:18:40;2.45;;;1.48;;
13807;SDS011;40769;51.512;5.494;2023-04-24T11:21:15;3.63;;;1.80;;
13807;SDS011;40769;51.512;5.494;2023-04-24T11:23:42;3.00;;;1.80;;
13807;SDS011;40769;51.512;5.494;2023-04-24T11:26:09;3.60;;;1.67;;
13807;SDS011;40769;51.512;5.494;2023-04-24T11:28:48;4.53;;;1.90;;
13807;SDS011;40769;51.512;5.494;2023-04-24T11:34:10;3.28;;;1.88;;
13807;SDS011;40769;51.512;5.494;2023-04-24T11:36:37;5.55;;;1.80;;
13807;SDS011;40769;51.512;5.494;2023-04-24T11:39:04;2.85;;;1.50;;
13807;SDS011;40769;51.512;5.494;2023-04-24T11:41:30;1.95;;;1.50;;
13807;SDS011;40769;51.512;5.494;2023-04-24T11:43:56;2.72;;;1.45;;
13807;SDS011;40769;51.512;5.494;2023-04-24T11:46:22;3.53;;;1.45;;
13807;SDS011;40769;51.512;5.494;2023-04-24T11:48:51;3.75;;;1.88;;
13807;SDS011;40769;51.512;5.494;2023-04-24T11:51:17;2.72;;;1.60;;
13807;SDS011;40769;51.512;5.494;2023-04-24T11:53:42;3.80;;;1.48;;
13807;SDS011;40769;51.512;5.494;2023-04-24T11:56:08;2.08;;;1.50;;
13807;SDS011;40769;51.512;5.494;2023-04-24T11:58:35;2.47;;;1.38;;
13807;SDS011;40769;51.512;5.494;2023-04-24T12:01:02;3.00;;;1.70;;
13807;SDS011;40769;51.512;5.494;2023-04-24T12:03:27;2.75;;;1.50;;
13807;SDS011;40769;51.512;5.494;2023-04-24T12:06:03;2.97;;;1.52;;
13807;SDS011;40769;51.512;5.494;2023-04-24T12:08:31;2.55;;;1.40;;
13807;SDS011;40769;51.512;5.494;2023-04-24T12:10:57;2.63;;;1.25;;
13807;SDS011;40769;51.512;5.494;2023-04-24T12:13:27;2.03;;;1.20;;
13807;SDS011;40769;51.512;5.494;2023-04-24T12:15:53;2.25;;;1.20;;
13807;SDS011;40769;51.512;5.494;2023-04-24T12:18:22;2.78;;;1.30;;
13807;SDS011;40769;51.512;5.494;2023-04-24T12:20:48;1.15;;;1.05;;
13807;SDS011;40769;51.512;5.494;2023-04-24T12:23:14;2.03;;;1.30;;
13807;SDS011;40769;51.512;5.494;2023-04-24T12:25:40;2.13;;;1.30;;
13807;SDS011;40769;51.512;5.494;2023-04-24T12:30:35;2.33;;;1.20;;
13807;SDS011;40769;51.512;5.494;2023-04-24T12:33:09;1.75;;;1.13;;
13807;SDS011;40769;51.512;5.494;2023-04-24T12:35:35;2.17;;;1.25;;
13807;SDS011;40769;51.512;5.494;2023-04-24T12:40:40;2.65;;;1.08;;
13807;SDS011;40769;51.512;5.494;2023-04-24T12:43:17;2.70;;;1.40;;
13807;SDS011;40769;51.512;5.494;2023-04-24T12:45:45;1.30;;;0.90;;
13807;SDS011;40769;51.512;5.494;2023-04-24T12:48:13;1.30;;;1.00;;
13807;SDS011;40769;51.512;5.494;2023-04-24T12:50:39;2.17;;;1.00;;
13807;SDS011;40769;51.512;5.494;2023-04-24T12:53:05;1.67;;;1.13;;
13807;SDS011;40769;51.512;5.494;2023-04-24T12:55:33;1.90;;;1.20;;
13807;SDS011;40769;51.512;5.494;2023-04-24T12:57:59;2.15;;;0.80;;
13807;SDS011;40769;51.512;5.494;2023-04-24T13:00:24;1.23;;;0.90;;
13807;SDS011;40769;51.512;5.494;2023-04-24T13:02:50;1.70;;;0.80;;
13807;SDS011;40769;51.512;5.494;2023-04-24T13:05:16;1.63;;;0.90;;
13807;SDS011;40769;51.512;5.494;2023-04-24T13:07:42;1.52;;;0.90;;
13807;SDS011;40769;51.512;5.494;2023-04-24T13:10:08;1.83;;;1.17;;
13807;SDS011;40769;51.512;5.494;2023-04-24T13:12:34;1.33;;;0.80;;
13807;SDS011;40769;51.512;5.494;2023-04-24T13:15:00;2.00;;;1.20;;
13807;SDS011;40769;51.512;5.494;2023-04-24T13:17:25;2.90;;;1.27;;
13807;SDS011;40769;51.512;5.494;2023-04-24T13:19:51;1.88;;;1.00;;
13807;SDS011;40769;51.512;5.494;2023-04-24T13:22:19;1.25;;;0.90;;
13807;SDS011;40769;51.512;5.494;2023-04-24T13:24:45;3.85;;;1.27;;
13807;SDS011;40769;51.512;5.494;2023-04-24T13:27:14;1.20;;;0.93;;
13807;SDS011;40769;51.512;5.494;2023-04-24T13:29:40;1.50;;;1.00;;
13807;SDS011;40769;51.512;5.494;2023-04-24T13:32:06;1.40;;;1.08;;
13807;SDS011;40769;51.512;5.494;2023-04-24T13:34:32;2.22;;;1.10;;
13807;SDS011;40769;51.512;5.494;2023-04-24T13:36:59;2.20;;;1.20;;
13807;SDS011;40769;51.512;5.494;2023-04-24T13:39:25;1.38;;;1.00;;
13807;SDS011;40769;51.512;5.494;2023-04-24T13:41:51;1.80;;;1.27;;
13807;SDS011;40769;51.512;5.494;2023-04-24T13:44:20;1.95;;;1.30;;
13807;SDS011;40769;51.512;5.494;2023-04-24T13:46:48;1.63;;;1.40;;
13807;SDS011;40769;51.512;5.494;2023-04-24T13:49:16;3.97;;;1.58;;
13807;SDS011;40769;51.512;5.494;2023-04-24T13:51:42;1.95;;;1.70;;
13807;SDS011;40769;51.512;5.494;2023-04-24T13:54:08;2.08;;;1.35;;
13807;SDS011;40769;51.512;5.494;2023-04-24T13:56:34;2.72;;;2.00;;
13807;SDS011;40769;51.512;5.494;2023-04-24T13:59:00;1.98;;;1.52;;
13807;SDS011;40769;51.512;5.494;2023-04-24T14:01:26;3.65;;;1.80;;
13807;SDS011;40769;51.512;5.494;2023-04-24T14:03:52;2.47;;;1.70;;
13807;SDS011;40769;51.512;5.494;2023-04-24T14:06:18;2.38;;;1.70;;
13807;SDS011;40769;51.512;5.494;2023-04-24T14:08:45;2.47;;;1.77;;
13807;SDS011;40769;51.512;5.494;2023-04-24T14:11:11;3.03;;;1.95;;
13807;SDS011;40769;51.512;5.494;2023-04-24T14:13:37;2.20;;;1.60;;
13807;SDS011;40769;51.512;5.494;2023-04-24T14:16:04;1.83;;;1.58;;
13807;SDS011;40769;51.512;5.494;2023-04-24T14:18:29;2.90;;;1.40;;
13807;SDS011;40769;51.512;5.494;2023-04-24T14:20:55;1.73;;;1.20;;
13807;SDS011;40769;51.512;5.494;2023-04-24T14:23:21;1.77;;;1.10;;
13807;SDS011;40769;51.512;5.494;2023-04-24T14:25:47;1.70;;;1.27;;
13807;SDS011;40769;51.512;5.494;2023-04-24T14:28:16;1.25;;;1.15;;
13807;SDS011;40769;51.512;5.494;2023-04-24T14:30:45;1.88;;;1.50;;
13807;SDS011;40769;51.512;5.494;2023-04-24T14:33:11;2.50;;;1.50;;
13807;SDS011;40769;51.512;5.494;2023-04-24T14:35:38;3.05;;;1.73;;
13807;SDS011;40769;51.512;5.494;2023-04-24T14:38:05;2.20;;;1.60;;
13807;SDS011;40769;51.512;5.494;2023-04-24T14:40:31;2.38;;;1.50;;
13807;SDS011;40769;51.512;5.494;2023-04-24T14:42:57;1.90;;;1.50;;
13807;SDS011;40769;51.512;5.494;2023-04-24T14:45:24;3.20;;;1.60;;
13807;SDS011;40769;51.512;5.494;2023-04-24T14:47:50;3.45;;;1.95;;
13807;SDS011;40769;51.512;5.494;2023-04-24T14:50:16;2.17;;;1.50;;
13807;SDS011;40769;51.512;5.494;2023-04-24T14:52:42;1.70;;;1.10;;